Time;durP1;ratioP1;P1;durP2;ratioP2;P2;SDS_P1;SDS_P2;PMS_P1;PMS_P2;Temp;Humidity;BMP_temperature;BMP_pressure;BME280_temperature;BME280_humidity;BME280_pressure;Samples;Min_cycle;Max_cycle;Signal;HPM_P1;HPM_P2
2023/05/13 00:00:03;;;;;;;7.32;4.85;;;;;;;13.32;100.00;101771.63;6229165;28;20056;-69
2023/05/13 00:03:05;;;;;;;8.98;5.68;;;;;;;13.34;100.00;101767.09;6229457;28;20366;-69
2023/05/13 00:06:06;;;;;;;7.82;4.55;;;;;;;13.30;100.00;101761.09;6229501;28;20060;-69
2023/05/13 00:09:08;;;;;;;8.02;4.82;;;;;;;13.32;100.00;101758.41;6221275;28;20346;-69
2023/05/13 00:12:11;;;;;;;11.98;4.70;;;;;;;13.26;100.00;101756.06;6229293;28;20504;-69
2023/05/13 00:15:12;;;;;;;9.32;4.78;;;;;;;13.27;100.00;101758.66;6229549;28;20057;-69
2023/05/13 00:18:14;;;;;;;7.45;4.68;;;;;;;13.23;100.00;101758.88;6228987;28;20049;-69
2023/05/13 00:21:15;;;;;;;10.25;3.97;;;;;;;13.23;100.00;101759.72;6229498;28;20438;-69
2023/05/13 00:24:17;;;;;;;8.00;4.60;;;;;;;13.20;100.00;101760.66;6229232;28;20465;-69
2023/05/13 00:27:19;;;;;;;5.57;3.47;;;;;;;13.18;100.00;101766.97;6228987;28;20053;-69
2023/05/13 00:30:21;;;;;;;5.80;3.28;;;;;;;13.17;100.00;101760.84;6228607;28;20050;-69
2023/05/13 00:33:22;;;;;;;10.18;3.88;;;;;;;13.13;100.00;101763.69;6228696;28;20054;-69
2023/05/13 00:36:26;;;;;;;8.52;3.85;;;;;;;13.06;100.00;101768.41;6228807;28;20340;-69
2023/05/13 00:39:27;;;;;;;6.45;4.30;;;;;;;13.00;100.00;101760.78;6228445;28;20089;-69
2023/05/13 00:42:30;;;;;;;10.57;3.28;;;;;;;12.97;100.00;101762.69;6228943;28;20052;-69
2023/05/13 00:45:32;;;;;;;8.35;3.70;;;;;;;12.91;100.00;101762.06;6228675;28;20049;-69
2023/05/13 00:48:33;;;;;;;5.35;3.42;;;;;;;12.90;100.00;101763.00;6228122;28;20049;-69
2023/05/13 00:51:35;;;;;;;8.77;3.33;;;;;;;12.87;100.00;101763.13;6220155;28;20050;-69
2023/05/13 00:54:37;;;;;;;9.85;3.47;;;;;;;12.83;100.00;101758.94;6228318;28;20053;-69
2023/05/13 00:57:40;;;;;;;8.85;3.60;;;;;;;12.80;100.00;101766.13;6227954;28;20346;-69
2023/05/13 01:00:48;;;;;;;7.25;3.97;;;;;;;12.73;100.00;101764.72;6227925;28;20446;-69
2023/05/13 01:04:00;;;;;;;6.80;4.25;;;;;;;12.64;100.00;101766.84;6228278;28;20358;-69
2023/05/13 01:07:09;;;;;;;8.43;4.10;;;;;;;12.59;100.00;101766.19;6228131;28;20439;-69
2023/05/13 01:10:19;;;;;;;6.10;3.63;;;;;;;12.58;100.00;101772.41;6228026;28;20046;-69
2023/05/13 01:13:24;;;;;;;5.75;3.80;;;;;;;12.49;100.00;101772.81;6228112;28;20201;-69
2023/05/13 01:16:32;;;;;;;8.60;3.38;;;;;;;12.44;100.00;101767.75;6227874;28;20057;-69
2023/05/13 01:19:40;;;;;;;9.02;4.53;;;;;;;12.43;100.00;101775.69;6227788;28;20041;-69
2023/05/13 01:22:43;;;;;;;6.25;4.32;;;;;;;12.39;100.00;101776.75;6227900;28;20461;-69
2023/05/13 01:25:45;;;;;;;5.45;3.88;;;;;;;12.37;100.00;101771.56;6227728;28;20350;-69
2023/05/13 01:28:46;;;;;;;7.55;4.10;;;;;;;12.39;100.00;101771.50;6227265;28;20053;-69
2023/05/13 01:31:50;;;;;;;8.02;3.80;;;;;;;12.37;100.00;101774.19;6227586;28;20052;-69
2023/05/13 01:34:53;;;;;;;7.78;3.53;;;;;;;12.31;100.00;101774.47;6227737;28;20049;-69
2023/05/13 01:37:57;;;;;;;5.55;3.65;;;;;;;12.23;100.00;101778.38;6227116;28;20046;-69
2023/05/13 01:40:58;;;;;;;5.88;4.25;;;;;;;12.16;100.00;101783.03;6227470;28;20046;-69
2023/05/13 01:44:00;;;;;;;4.47;3.47;;;;;;;12.12;100.00;101784.09;6227357;28;20076;-69
2023/05/13 01:47:01;;;;;;;6.20;4.00;;;;;;;12.06;100.00;101777.31;6227374;28;20053;-69
2023/05/13 01:50:03;;;;;;;6.28;3.85;;;;;;;12.05;100.00;101780.03;6227012;28;20046;-69
2023/05/13 01:53:05;;;;;;;7.43;4.25;;;;;;;11.98;100.00;101771.50;6227092;28;20046;-69
2023/05/13 01:56:09;;;;;;;6.93;3.70;;;;;;;11.95;100.00;101773.44;6226951;28;20046;-69
2023/05/13 01:59:10;;;;;;;10.73;3.47;;;;;;;11.85;100.00;101773.81;6226608;28;20093;-69
2023/05/13 02:02:12;;;;;;;12.00;4.00;;;;;;;11.82;100.00;101773.06;6227031;28;20132;-69
2023/05/13 02:05:13;;;;;;;7.07;3.90;;;;;;;11.78;100.00;101772.34;6226817;28;20045;-69
2023/05/13 02:08:16;;;;;;;9.38;3.45;;;;;;;11.78;100.00;101763.59;6226607;28;20050;-69
2023/05/13 02:11:17;;;;;;;7.18;3.30;;;;;;;11.80;100.00;101762.56;6226248;28;20057;-69
2023/05/13 02:14:19;;;;;;;4.50;3.42;;;;;;;11.80;100.00;101772.25;6223248;28;20056;-70
2023/05/13 02:17:21;;;;;;;6.30;3.85;;;;;;;11.83;100.00;101775.66;6220343;28;20045;-70
2023/05/13 02:20:22;;;;;;;8.90;3.90;;;;;;;11.85;100.00;101776.44;6226333;28;20046;-70
2023/05/13 02:23:25;;;;;;;4.82;3.70;;;;;;;11.79;100.00;101781.09;6226446;28;20354;-70
2023/05/13 02:26:26;;;;;;;5.13;3.75;;;;;;;11.88;100.00;101776.31;6220688;28;20061;-70
2023/05/13 02:29:28;;;;;;;6.60;4.25;;;;;;;11.79;100.00;101776.66;6226193;28;20050;-70
2023/05/13 02:32:29;;;;;;;5.43;3.30;;;;;;;11.78;100.00;101774.97;6226471;28;20050;-70
2023/05/13 02:35:30;;;;;;;4.50;3.22;;;;;;;11.73;100.00;101782.22;6226173;28;20042;-70
2023/05/13 02:38:33;;;;;;;4.68;3.75;;;;;;;11.68;100.00;101773.66;6225923;28;20049;-70
2023/05/13 02:41:35;;;;;;;5.75;3.70;;;;;;;11.51;100.00;101776.97;6226139;28;20052;-70
2023/05/13 02:44:36;;;;;;;5.60;3.72;;;;;;;11.40;100.00;101777.41;6226277;28;20133;-70
2023/05/13 02:47:38;;;;;;;7.53;3.95;;;;;;;11.34;100.00;101776.78;6225862;28;20362;-70
2023/05/13 02:50:39;;;;;;;5.78;3.70;;;;;;;11.38;100.00;101768.69;6218500;28;20461;-70
2023/05/13 02:53:42;;;;;;;8.15;4.05;;;;;;;11.15;100.00;101772.25;6225907;28;20048;-70
2023/05/13 02:56:43;;;;;;;6.07;3.75;;;;;;;11.26;100.00;101770.97;6222580;28;20061;-70
2023/05/13 02:59:45;;;;;;;8.50;3.97;;;;;;;11.27;100.00;101770.06;6222504;28;20046;-70
2023/05/13 03:02:46;;;;;;;4.38;3.05;;;;;;;11.30;100.00;101772.56;6225831;28;20407;-70
2023/05/13 03:05:48;;;;;;;6.35;4.22;;;;;;;11.31;100.00;101769.00;6225867;28;20060;-70
2023/05/13 03:08:50;;;;;;;7.57;4.25;;;;;;;11.22;100.00;101775.50;6225499;28;20042;-70
2023/05/13 03:11:52;;;;;;;7.13;3.95;;;;;;;11.23;100.00;101779.00;6225741;28;20046;-71
2023/05/13 03:14:53;;;;;;;7.07;3.90;;;;;;;11.22;100.00;101770.25;6217089;28;20057;-70
2023/05/13 03:17:54;;;;;;;5.82;3.70;;;;;;;11.11;100.00;101783.81;6203053;28;20057;-70
2023/05/13 03:20:56;;;;;;;7.78;4.20;;;;;;;11.07;100.00;101778.72;6204118;28;20081;-70
2023/05/13 03:23:58;;;;;;;6.13;4.18;;;;;;;11.06;100.00;101784.91;6206691;28;20061;-70
2023/05/13 03:27:00;;;;;;;6.10;3.80;;;;;;;11.10;100.00;101792.63;6210127;28;20102;-70
2023/05/13 03:30:01;;;;;;;7.20;4.13;;;;;;;11.09;100.00;101795.31;6210771;28;20045;-70
2023/05/13 03:33:03;;;;;;;5.75;4.18;;;;;;;11.07;100.00;101790.09;6210250;28;20354;-70
2023/05/13 03:36:05;;;;;;;6.10;3.78;;;;;;;11.05;100.00;101793.72;6209253;28;20549;-70
2023/05/13 03:39:08;;;;;;;8.25;4.78;;;;;;;10.99;100.00;101800.06;6208547;28;20132;-70
2023/05/13 03:42:09;;;;;;;6.90;3.63;;;;;;;10.97;100.00;101803.66;6209933;28;20057;-70
2023/05/13 03:45:11;;;;;;;10.32;4.35;;;;;;;10.92;100.00;101803.84;6213032;28;20080;-70
2023/05/13 03:48:12;;;;;;;10.80;4.68;;;;;;;10.93;100.00;101805.56;6208301;28;20181;-70
2023/05/13 03:51:13;;;;;;;5.40;4.05;;;;;;;10.92;100.00;101806.47;6208632;28;20057;-70
2023/05/13 03:54:16;;;;;;;6.15;4.25;;;;;;;10.96;100.00;101817.75;6208261;28;20046;-70
2023/05/13 03:57:17;;;;;;;5.35;3.80;;;;;;;10.90;100.00;101816.19;6206354;28;20045;-70
2023/05/13 04:00:19;;;;;;;9.70;4.70;;;;;;;10.89;100.00;101810.06;6209668;28;20054;-70
2023/05/13 04:03:20;;;;;;;7.72;4.22;;;;;;;10.88;100.00;101810.97;6208518;28;20184;-70
2023/05/13 04:06:22;;;;;;;7.00;3.78;;;;;;;10.84;100.00;101806.75;6209931;28;20045;-70
2023/05/13 04:09:24;;;;;;;6.82;4.50;;;;;;;10.77;100.00;101802.66;6206990;28;20045;-70
2023/05/13 04:12:26;;;;;;;7.00;4.35;;;;;;;10.72;100.00;101803.72;6207554;28;20042;-70
2023/05/13 04:15:27;;;;;;;8.80;4.80;;;;;;;10.72;100.00;101801.97;6220045;28;20362;-70
2023/05/13 04:18:29;;;;;;;9.07;4.00;;;;;;;10.73;100.00;101814.19;6229190;28;20042;-70
2023/05/13 04:21:31;;;;;;;8.80;4.53;;;;;;;10.74;100.00;101813.28;6229246;28;20050;-70
2023/05/13 04:24:33;;;;;;;7.13;4.15;;;;;;;10.79;100.00;101818.38;6229100;28;20041;-70
2023/05/13 04:27:35;;;;;;;6.65;4.15;;;;;;;10.82;100.00;101816.47;6229109;28;20050;-70
2023/05/13 04:30:37;;;;;;;6.50;4.45;;;;;;;10.85;100.00;101821.59;6229020;28;20046;-70
2023/05/13 04:33:39;;;;;;;6.88;4.03;;;;;;;10.87;100.00;101817.16;6228542;28;20045;-70
2023/05/13 04:36:40;;;;;;;7.18;4.88;;;;;;;10.92;100.00;101824.88;6229078;28;20049;-70
2023/05/13 04:39:43;;;;;;;5.57;3.63;;;;;;;10.96;100.00;101821.22;6228613;28;20056;-70
2023/05/13 04:42:44;;;;;;;8.68;4.45;;;;;;;11.02;100.00;101820.13;6228808;28;20045;-70
2023/05/13 04:45:47;;;;;;;6.43;3.90;;;;;;;11.10;100.00;101823.34;6228847;28;20057;-70
2023/05/13 04:48:49;;;;;;;8.68;4.90;;;;;;;11.14;100.00;101827.56;6228284;28;20050;-70
2023/05/13 04:51:50;;;;;;;5.35;3.65;;;;;;;11.19;100.00;101825.59;6221810;28;20457;-70
2023/05/13 04:54:53;;;;;;;6.07;4.22;;;;;;;11.25;100.00;101824.50;6227346;28;20061;-70
2023/05/13 04:57:54;;;;;;;8.13;4.15;;;;;;;11.31;100.00;101837.41;6228084;28;20443;-70
2023/05/13 05:00:56;;;;;;;10.13;4.25;;;;;;;11.34;100.00;101838.16;6227703;28;20053;-70
2023/05/13 05:03:57;;;;;;;8.38;3.70;;;;;;;11.37;100.00;101831.94;6228235;28;20054;-70
2023/05/13 05:06:59;;;;;;;7.85;4.03;;;;;;;11.37;100.00;101837.19;6228074;28;20049;-70
2023/05/13 05:10:01;;;;;;;6.78;4.10;;;;;;;11.39;100.00;101830.94;6228079;28;20046;-70
2023/05/13 05:13:03;;;;;;;9.15;3.60;;;;;;;11.45;100.00;101834.28;6227887;28;20100;-70
2023/05/13 05:16:05;;;;;;;4.63;3.38;;;;;;;11.46;100.00;101836.84;6227969;28;20049;-70
2023/05/13 05:19:07;;;;;;;7.05;4.18;;;;;;;11.50;100.00;101843.69;6227494;28;20450;-70
2023/05/13 05:22:08;;;;;;;4.90;3.75;;;;;;;11.53;100.00;101855.88;6219629;28;20354;-70
2023/05/13 05:25:11;;;;;;;6.00;3.63;;;;;;;11.57;100.00;101847.78;6227620;28;20183;-70
2023/05/13 05:28:13;;;;;;;7.95;3.47;;;;;;;11.60;100.00;101850.31;6227332;28;20050;-70
2023/05/13 05:31:14;;;;;;;6.53;4.00;;;;;;;11.62;100.00;101848.44;6227561;28;20335;-70
2023/05/13 05:34:15;;;;;;;8.52;4.18;;;;;;;11.58;100.00;101844.25;6227467;28;20050;-70
2023/05/13 05:37:17;;;;;;;5.90;3.28;;;;;;;11.65;100.00;101845.72;6227387;28;20382;-70
2023/05/13 05:40:20;;;;;;;5.68;3.53;;;;;;;11.69;100.00;101847.31;6227163;28;20046;-70
2023/05/13 05:43:21;;;;;;;5.78;3.63;;;;;;;11.73;100.00;101841.91;6227267;28;20185;-70
2023/05/13 05:46:23;;;;;;;6.43;4.05;;;;;;;11.75;100.00;101845.34;6226412;28;20046;-70
2023/05/13 05:49:24;;;;;;;4.10;3.08;;;;;;;11.78;100.00;101848.72;6226909;28;20050;-70
2023/05/13 05:52:25;;;;;;;5.30;3.80;;;;;;;11.80;100.00;101846.00;6227230;28;20053;-70
2023/05/13 05:55:30;;;;;;;6.55;3.60;;;;;;;11.77;100.00;101846.16;6226649;28;20054;-70
2023/05/13 05:58:31;;;;;;;9.98;4.13;;;;;;;11.87;100.00;101845.72;6226910;28;20092;-70
2023/05/13 06:01:35;;;;;;;8.20;4.00;;;;;;;11.92;100.00;101843.75;6226810;28;20054;-70
2023/05/13 06:04:37;;;;;;;6.00;3.35;;;;;;;11.96;100.00;101851.53;6227109;28;20321;-70
2023/05/13 06:07:38;;;;;;;5.30;3.53;;;;;;;11.98;100.00;101847.91;6226651;28;20050;-70
2023/05/13 06:10:41;;;;;;;4.90;3.33;;;;;;;12.02;100.00;101841.59;6226685;28;20046;-70
2023/05/13 06:13:42;;;;;;;4.57;2.97;;;;;;;12.11;100.00;101845.63;6226588;28;20041;-70
2023/05/13 06:16:44;;;;;;;4.97;3.47;;;;;;;12.16;100.00;101843.66;6226706;28;20054;-70
2023/05/13 06:19:45;;;;;;;6.68;3.55;;;;;;;12.26;100.00;101846.75;6226329;28;20050;-70
2023/05/13 06:22:46;;;;;;;4.63;2.90;;;;;;;12.29;100.00;101844.00;6226745;28;20229;-71
2023/05/13 06:25:49;;;;;;;6.60;3.53;;;;;;;12.34;100.00;101837.59;6226264;28;20056;-70
2023/05/13 06:28:51;;;;;;;5.25;3.20;;;;;;;12.42;100.00;101843.41;6226024;28;20049;-70
2023/05/13 06:31:52;;;;;;;4.50;3.08;;;;;;;12.46;100.00;101840.63;6226457;28;20057;-71
2023/05/13 06:34:53;;;;;;;8.13;3.80;;;;;;;12.47;100.00;101845.81;6226256;28;20053;-71
2023/05/13 06:37:55;;;;;;;6.95;3.53;;;;;;;12.52;100.00;101853.53;6226024;28;20355;-71
2023/05/13 06:40:57;;;;;;;5.65;3.15;;;;;;;12.57;100.00;101849.75;6226011;28;20054;-71
2023/05/13 06:43:59;;;;;;;11.35;3.38;;;;;;;12.64;100.00;101853.88;6225684;28;20053;-71
2023/05/13 06:47:01;;;;;;;5.20;3.22;;;;;;;12.65;100.00;101860.84;6225427;28;20057;-71
2023/05/13 06:50:03;;;;;;;8.00;3.53;;;;;;;12.74;100.00;101861.38;6223149;28;20042;-70
2023/05/13 06:53:04;;;;;;;7.07;3.30;;;;;;;12.77;100.00;101854.19;6224925;28;20058;-71
2023/05/13 06:56:07;;;;;;;5.97;3.60;;;;;;;12.82;100.00;101857.47;6224856;28;20072;-71
2023/05/13 06:59:09;;;;;;;5.43;3.00;;;;;;;12.88;100.00;101858.97;6221167;28;20049;-71
2023/05/13 07:02:10;;;;;;;4.55;2.85;;;;;;;12.93;100.00;101851.69;6225098;28;20350;-71
2023/05/13 07:05:12;;;;;;;6.95;3.40;;;;;;;13.06;100.00;101854.63;6225279;28;20363;-71
2023/05/13 07:08:16;;;;;;;6.90;3.38;;;;;;;13.11;100.00;101850.84;6224824;28;20359;-70
2023/05/13 07:11:19;;;;;;;6.10;3.15;;;;;;;13.24;100.00;101859.09;6225189;28;20627;-70
2023/05/13 07:14:21;;;;;;;10.50;3.15;;;;;;;13.37;97.95;101852.31;6225106;28;20049;-70
2023/05/13 07:17:22;;;;;;;5.35;2.80;;;;;;;13.43;97.35;101857.28;6225583;28;20050;-70
2023/05/13 07:20:25;;;;;;;5.03;3.10;;;;;;;13.47;100.00;101857.16;6225310;28;20133;-70
2023/05/13 07:23:26;;;;;;;4.32;3.40;;;;;;;13.51;100.00;101850.81;6225529;28;20050;-70
2023/05/13 07:26:29;;;;;;;3.95;2.88;;;;;;;13.60;97.56;101853.84;6225250;28;20054;-70
2023/05/13 07:29:31;;;;;;;5.28;3.10;;;;;;;13.68;95.45;101835.84;6225221;28;20349;-70
2023/05/13 07:32:34;;;;;;;5.40;4.00;;;;;;;13.75;95.71;101840.81;6225631;28;20050;-70
2023/05/13 07:35:36;;;;;;;5.88;3.20;;;;;;;13.77;96.47;101846.91;6225436;28;20431;-70
2023/05/13 07:38:37;;;;;;;4.53;2.83;;;;;;;13.85;94.41;101845.59;6225260;28;20049;-70
2023/05/13 07:41:40;;;;;;;5.50;2.75;;;;;;;13.92;94.08;101843.50;6225306;28;20053;-70
2023/05/13 07:44:41;;;;;;;4.40;2.88;;;;;;;13.97;95.54;101844.13;6225534;28;20053;-70
2023/05/13 07:47:43;;;;;;;4.22;2.92;;;;;;;14.03;95.26;101835.88;6225245;28;20046;-70
2023/05/13 07:50:44;;;;;;;4.65;2.65;;;;;;;14.10;94.08;101836.44;6225178;28;20072;-71
2023/05/13 07:53:45;;;;;;;7.07;3.80;;;;;;;14.24;92.91;101846.31;6224836;28;20052;-70
2023/05/13 07:56:48;;;;;;;5.45;3.40;;;;;;;14.32;89.97;101844.97;6225091;28;20529;-70
2023/05/13 07:59:51;;;;;;;6.53;3.00;;;;;;;14.41;88.61;101833.06;6224842;28;20042;-70
2023/05/13 08:02:52;;;;;;;5.43;2.72;;;;;;;14.51;87.68;101838.78;6225368;28;20430;-70
2023/05/13 08:05:54;;;;;;;5.05;3.00;;;;;;;14.55;89.28;101849.09;6225168;28;20057;-70
2023/05/13 08:08:55;;;;;;;6.22;3.10;;;;;;;14.74;86.99;101834.91;6225682;28;20057;-70
2023/05/13 08:11:58;;;;;;;4.75;2.80;;;;;;;14.81;86.24;101839.78;6229570;28;20057;-70
2023/05/13 08:15:02;;;;;;;4.43;2.95;;;;;;;14.89;86.65;101839.38;6228501;28;20041;-70
2023/05/13 08:18:04;;;;;;;3.10;2.38;;;;;;;14.97;88.67;101842.47;6224424;28;20196;-70
2023/05/13 08:21:05;;;;;;;3.88;2.80;;;;;;;14.99;88.85;101843.25;6225702;28;20052;-70
2023/05/13 08:24:07;;;;;;;5.07;2.97;;;;;;;15.01;87.18;101841.34;6229103;28;20050;-70
2023/05/13 08:27:09;;;;;;;6.43;3.45;;;;;;;15.06;86.20;101844.59;6228946;28;20347;-70
2023/05/13 08:30:11;;;;;;;4.15;2.47;;;;;;;15.16;85.65;101840.50;6228814;28;20042;-70
2023/05/13 08:33:13;;;;;;;4.35;2.72;;;;;;;15.23;86.97;101843.69;6219825;28;20539;-70
2023/05/13 08:36:14;;;;;;;4.13;2.55;;;;;;;15.33;85.63;101841.38;6233588;28;20045;-70
2023/05/13 08:39:16;;;;;;;4.03;2.83;;;;;;;15.46;83.67;101840.59;6250859;28;20191;-70
2023/05/13 08:42:22;;;;;;;3.92;2.55;;;;;;;15.58;83.16;101828.47;6246688;28;20045;-71
2023/05/13 08:45:28;;;;;;;5.43;2.75;;;;;;;15.69;83.78;101833.19;6246818;28;20164;-70
2023/05/13 08:48:31;;;;;;;4.82;2.38;;;;;;;15.72;85.17;101843.63;6247945;28;20042;-70
2023/05/13 08:51:32;;;;;;;7.95;3.08;;;;;;;15.84;84.31;101836.72;6244161;28;20048;-70
2023/05/13 08:54:35;;;;;;;3.67;2.50;;;;;;;15.91;83.65;101838.94;6264645;28;20124;-70
2023/05/13 08:57:38;;;;;;;7.63;2.33;;;;;;;15.98;83.85;101834.13;6277565;28;20441;-70
2023/05/13 09:00:40;;;;;;;3.50;2.60;;;;;;;16.08;82.17;101835.31;6276495;28;20045;-70
2023/05/13 09:03:53;;;;;;;8.27;2.30;;;;;;;16.22;81.17;101831.84;6277733;28;20456;-70
2023/05/13 09:06:54;;;;;;;5.95;2.35;;;;;;;16.31;79.20;101828.63;6277484;28;20110;-70
2023/05/13 09:09:55;;;;;;;4.45;2.55;;;;;;;16.37;79.37;101828.25;6277437;28;20041;-70
2023/05/13 09:13:00;;;;;;;6.53;2.50;;;;;;;16.31;77.86;101823.34;6277287;28;20049;-74
2023/05/13 09:16:02;;;;;;;3.08;2.25;;;;;;;16.40;76.73;101825.44;6277453;28;20449;-70
2023/05/13 09:19:05;;;;;;;7.03;2.67;;;;;;;16.58;80.23;101830.53;6277136;28;20434;-70
2023/05/13 09:22:16;;;;;;;5.70;2.60;;;;;;;16.70;81.56;101824.50;6269798;28;20038;-70
2023/05/13 09:25:19;;;;;;;7.15;2.60;;;;;;;16.84;76.87;101821.84;6263542;28;20064;-70
2023/05/13 09:28:22;;;;;;;3.95;2.50;;;;;;;16.83;76.50;101822.81;6253228;28;20054;-70
2023/05/13 09:31:32;;;;;;;3.05;2.05;;;;;;;16.86;75.25;101814.66;6240818;28;20367;-70
2023/05/13 09:34:34;;;;;;;7.47;2.50;;;;;;;17.04;76.41;101814.47;6240643;28;20353;-71
2023/05/13 09:37:36;;;;;;;2.83;2.35;;;;;;;17.14;72.37;101820.88;6251057;28;20045;-71
2023/05/13 09:40:37;;;;;;;2.92;2.10;;;;;;;17.17;74.57;101820.69;6253578;28;20044;-70
2023/05/13 09:43:40;;;;;;;3.83;2.38;;;;;;;17.20;73.57;101818.69;6246449;28;20064;-70
2023/05/13 09:46:42;;;;;;;7.10;2.47;;;;;;;17.24;75.15;101819.34;6247698;28;20060;-70
2023/05/13 09:49:44;;;;;;;4.32;2.25;;;;;;;17.29;72.80;101816.38;6256592;28;20052;-70
2023/05/13 09:52:46;;;;;;;4.50;2.72;;;;;;;17.44;75.28;101810.94;6254612;28;20458;-70
2023/05/13 09:55:48;;;;;;;3.25;2.42;;;;;;;17.59;73.63;101808.22;6265555;28;20056;-70
2023/05/13 09:58:54;;;;;;;5.50;2.60;;;;;;;17.59;72.23;101806.44;6272928;28;20057;-70
2023/05/13 10:01:58;;;;;;;5.35;2.47;;;;;;;17.60;73.36;101802.81;6251523;28;20053;-70
2023/05/13 10:05:01;;;;;;;3.72;2.50;;;;;;;17.79;71.52;101806.94;6267217;28;20061;-70
2023/05/13 10:08:03;;;;;;;4.25;2.22;;;;;;;17.75;71.90;101812.44;6250802;28;20049;-71
2023/05/13 10:11:06;;;;;;;3.17;2.20;;;;;;;17.90;71.49;101809.75;6249567;28;20042;-70
2023/05/13 10:14:09;;;;;;;5.32;1.92;;;;;;;18.05;64.44;101799.88;6259491;28;20581;-70
2023/05/13 10:17:11;;;;;;;6.60;2.50;;;;;;;18.09;64.24;101804.88;6249788;28;20048;-70
2023/05/13 10:20:13;;;;;;;3.22;1.88;;;;;;;18.06;64.87;101804.22;6248732;28;20046;-70
2023/05/13 10:23:15;;;;;;;3.58;2.33;;;;;;;18.21;64.06;101803.16;6268360;28;20048;-70
2023/05/13 10:26:16;;;;;;;3.05;2.35;;;;;;;18.42;61.75;101803.50;6267574;28;20057;-70
2023/05/13 10:29:19;;;;;;;2.63;2.08;;;;;;;18.50;64.12;101796.69;6252189;28;20046;-71
2023/05/13 10:32:22;;;;;;;3.10;2.20;;;;;;;18.51;64.77;101802.88;6275270;28;20045;-71
2023/05/13 10:35:28;;;;;;;2.10;1.90;;;;;;;18.81;63.13;101796.38;6271111;28;20430;-70
2023/05/13 10:38:47;;;;;;;3.97;2.55;;;;;;;18.75;63.81;101789.66;6253460;28;20042;-70
2023/05/13 10:42:26;;;;;;;5.88;2.30;;;;;;;18.93;64.55;101788.34;6275605;28;20040;-70
2023/05/13 10:45:31;;;;;;;;;;;;;;;19.24;62.52;101791.44;6275828;28;20601;-70
2023/05/13 10:48:40;;;;;;;4.57;2.65;;;;;;;19.27;63.51;101777.91;6275129;28;19921;-70
2023/05/13 10:51:45;;;;;;;7.90;2.65;;;;;;;19.30;61.30;101780.31;6269890;28;20126;-70
2023/05/13 10:55:00;;;;;;;4.55;2.63;;;;;;;19.16;62.03;101778.69;6249557;28;20124;-70
2023/05/13 10:58:10;;;;;;;9.38;2.65;;;;;;;18.90;60.78;101791.25;6242067;28;20180;-73
2023/05/13 11:01:15;;;;;;;3.03;2.15;;;;;;;18.67;59.95;101776.88;6246272;28;20132;-69
2023/05/13 11:04:19;;;;;;;3.55;2.08;;;;;;;18.59;58.52;101776.56;6239191;28;20049;-68
2023/05/13 11:07:20;;;;;;;3.75;2.08;;;;;;;18.57;58.21;101774.94;6251739;28;20358;-69
2023/05/13 11:10:27;;;;;;;4.07;1.90;;;;;;;18.71;58.94;101777.50;6274649;28;20044;-69
2023/05/13 11:13:35;;;;;;;3.97;2.15;;;;;;;18.77;59.94;101773.59;6266782;28;20045;-69
2023/05/13 11:16:38;;;;;;;5.38;2.05;;;;;;;19.02;57.25;101774.34;6274822;28;20353;-69
2023/05/13 11:19:46;;;;;;;4.57;2.10;;;;;;;19.15;56.02;101776.13;6274748;28;20049;-69
2023/05/13 11:22:47;;;;;;;10.05;1.90;;;;;;;18.98;58.00;101775.53;6267300;28;20095;-69
2023/05/13 11:26:10;;;;;;;3.03;1.95;;;;;;;18.94;58.76;101773.19;6274891;28;20048;-69
2023/05/13 11:29:11;;;;;;;4.03;2.10;;;;;;;18.97;58.61;101770.31;6253941;28;20108;-69
2023/05/13 11:32:14;;;;;;;3.03;1.92;;;;;;;18.87;57.79;101772.81;6249915;28;20049;-69
2023/05/13 11:35:19;;;;;;;2.75;1.83;;;;;;;18.81;58.56;101767.09;6254734;28;20361;-69
2023/05/13 11:38:23;;;;;;;4.40;2.70;;;;;;;19.08;58.45;101766.91;6251564;28;20135;-69
2023/05/13 11:41:25;;;;;;;3.47;2.13;;;;;;;19.18;58.03;101765.25;6274713;28;20045;-69
2023/05/13 11:44:27;;;;;;;4.15;2.17;;;;;;;19.25;57.79;101771.81;6276362;28;20507;-69
2023/05/13 11:47:29;;;;;;;2.40;1.95;;;;;;;19.61;56.87;101772.75;6269717;28;20455;-69
2023/05/13 11:50:31;;;;;;;5.18;2.20;;;;;;;19.51;54.64;101770.75;6254150;28;20353;-70
2023/05/13 11:53:33;;;;;;;2.78;2.00;;;;;;;19.96;50.91;101773.59;6257843;28;20341;-69
2023/05/13 11:56:34;;;;;;;4.80;2.17;;;;;;;20.40;54.85;101765.81;6274642;28;20050;-69
2023/05/13 11:59:35;;;;;;;3.80;1.95;;;;;;;20.77;52.10;101777.97;6257704;28;20041;-69
2023/05/13 12:02:39;;;;;;;2.00;1.73;;;;;;;20.97;50.42;101762.97;6258742;28;20041;-69
2023/05/13 12:05:42;;;;;;;4.78;1.83;;;;;;;21.22;48.27;101769.00;6256552;28;20045;-69
2023/05/13 12:08:44;;;;;;;3.92;2.10;;;;;;;21.02;49.37;101765.28;6250778;28;20132;-68
2023/05/13 12:11:46;;;;;;;2.30;1.92;;;;;;;20.68;48.27;101759.16;6267514;28;20167;-69
2023/05/13 12:14:49;;;;;;;2.75;1.70;;;;;;;20.62;54.68;101759.63;6262759;28;20049;-69
2023/05/13 12:17:52;;;;;;;2.60;2.00;;;;;;;20.88;52.76;101763.72;6276175;28;20135;-69
2023/05/13 12:20:53;;;;;;;3.17;1.73;;;;;;;20.60;49.66;101767.75;6265323;28;20053;-69
2023/05/13 12:23:55;;;;;;;2.22;1.60;;;;;;;20.41;51.96;101762.16;6256689;28;20362;-69
2023/05/13 12:27:05;;;;;;;4.40;2.05;;;;;;;20.67;51.71;101755.63;6257187;28;20132;-69
2023/05/13 12:30:14;;;;;;;4.22;1.90;;;;;;;21.12;50.42;101758.22;6262480;28;20056;-69
2023/05/13 12:33:19;;;;;;;;;;;;;;;21.65;48.36;101755.63;6265246;28;20057;-69
2023/05/13 12:36:24;;;;;;;3.30;1.55;;;;;;;22.03;46.62;101748.84;6252347;28;19921;-69
2023/05/13 12:39:25;;;;;;;3.78;2.05;;;;;;;22.09;46.74;101760.84;6255015;28;20442;-69
2023/05/13 12:42:27;;;;;;;3.55;1.92;;;;;;;21.74;46.58;101760.19;6278259;28;20052;-69
2023/05/13 12:45:30;;;;;;;2.25;1.75;;;;;;;21.77;43.87;101754.59;6261497;28;20052;-69
2023/05/13 12:48:33;;;;;;;1.60;1.50;;;;;;;21.99;44.53;101760.78;6277697;28;20064;-69
2023/05/13 12:51:35;;;;;;;2.17;1.70;;;;;;;21.62;47.62;101763.03;6272497;28;20040;-69
2023/05/13 12:54:36;;;;;;;2.38;1.92;;;;;;;21.28;44.93;101758.66;6277428;28;20361;-69
2023/05/13 12:57:37;;;;;;;2.47;1.80;;;;;;;21.21;45.36;101761.94;6262075;28;20049;-69
2023/05/13 13:00:39;;;;;;;1.88;1.67;;;;;;;21.48;46.25;101761.53;6252839;28;20045;-69
2023/05/13 13:03:41;;;;;;;2.80;1.70;;;;;;;21.31;46.02;101757.59;6251312;28;20052;-70
2023/05/13 13:06:43;;;;;;;2.75;1.90;;;;;;;21.02;44.50;101768.78;6248568;28;20061;-69
2023/05/13 13:09:44;;;;;;;2.40;2.00;;;;;;;20.82;46.51;101760.72;6253374;28;20057;-69
2023/05/13 13:12:45;;;;;;;3.20;2.15;;;;;;;20.64;47.83;101761.22;6256431;28;20049;-69
2023/05/13 13:15:47;;;;;;;3.58;1.92;;;;;;;20.59;48.47;101763.41;6258015;28;20052;-69
2023/05/13 13:18:50;;;;;;;2.08;1.60;;;;;;;20.49;47.69;101762.44;6250371;28;20053;-69
2023/05/13 13:21:51;;;;;;;2.08;1.88;;;;;;;20.46;47.04;101754.63;6251208;28;20595;-69
2023/05/13 13:24:53;;;;;;;3.55;2.00;;;;;;;20.41;49.00;101756.81;6275112;28;20052;-69
2023/05/13 13:27:54;;;;;;;3.15;1.70;;;;;;;20.28;48.36;101754.25;6265890;28;20442;-69
2023/05/13 13:30:56;;;;;;;3.22;2.03;;;;;;;20.55;50.72;101756.59;6258868;28;20048;-69
2023/05/13 13:34:03;;;;;;;4.40;2.10;;;;;;;20.95;48.02;101748.06;6276928;28;20057;-69
2023/05/13 13:37:04;;;;;;;5.38;2.33;;;;;;;20.72;45.64;101757.94;6268819;28;20053;-69
2023/05/13 13:40:07;;;;;;;5.13;2.05;;;;;;;20.90;46.40;101752.94;6276480;28;20049;-69
2023/05/13 13:43:08;;;;;;;2.58;1.85;;;;;;;21.49;48.66;101747.19;6276789;28;20048;-69
2023/05/13 13:46:10;;;;;;;6.80;2.15;;;;;;;22.07;45.70;101741.38;6276203;28;20052;-69
2023/05/13 13:49:12;;;;;;;2.75;1.90;;;;;;;22.35;43.90;101740.72;6258839;28;20053;-69
2023/05/13 13:52:14;;;;;;;6.25;2.42;;;;;;;22.21;45.10;101736.59;6269008;28;20041;-69
2023/05/13 13:55:15;;;;;;;5.28;2.00;;;;;;;22.45;45.42;101730.91;6276514;28;20052;-69
2023/05/13 13:58:16;;;;;;;3.95;1.85;;;;;;;22.63;43.08;101727.59;6275967;28;20052;-69
2023/05/13 14:01:18;;;;;;;14.90;3.50;;;;;;;22.86;41.68;101729.06;6253364;28;20099;-69
2023/05/13 14:04:22;;;;;;;3.13;1.95;;;;;;;22.81;40.17;101723.25;6269617;28;20059;-69